Time;durP1;ratioP1;P1;durP2;ratioP2;P2;SDS_P1;SDS_P2;PMS_P1;PMS_P2;Temp;Humidity;BMP_temperature;BMP_pressure;BME280_temperature;BME280_humidity;BME280_pressure;Samples;Min_cycle;Max_cycle;Signal;HPM_P1;HPM_P2
2022/11/27 00:01:48;;;;;;;95.83;38.60;;;7.00;99.90;;;;;;5096018;28;20238;-73
2022/11/27 00:04:14;;;;;;;81.67;37.80;;;6.90;99.90;;;;;;5095920;28;20656;-73
2022/11/27 00:06:40;;;;;;;76.60;37.30;;;6.90;99.90;;;;;;5095949;28;20178;-73
2022/11/27 00:09:11;;;;;;;78.55;36.58;;;7.00;99.90;;;;;;5095834;28;20710;-73
2022/11/27 00:11:40;;;;;;;85.65;38.10;;;7.00;99.90;;;;;;5114341;28;20646;-73
2022/11/27 00:14:07;;;;;;;74.70;36.45;;;7.00;99.90;;;;;;5114453;28;20636;-73
2022/11/27 00:16:33;;;;;;;79.07;36.72;;;7.00;99.90;;;;;;5095876;28;20179;-73
2022/11/27 00:18:58;;;;;;;78.50;36.97;;;7.00;99.90;;;;;;5095843;28;20187;-73
2022/11/27 00:21:30;;;;;;;70.57;34.50;;;7.00;99.90;;;;;;5095722;28;20208;-73
2022/11/27 00:23:57;;;;;;;93.70;38.85;;;7.10;99.90;;;;;;5113944;28;20171;-73
2022/11/27 00:26:24;;;;;;;71.85;35.03;;;7.10;99.90;;;;;;5113859;28;20631;-73
2022/11/27 00:28:50;;;;;;;85.75;39.13;;;7.10;99.90;;;;;;5113988;28;20176;-73
2022/11/27 00:31:27;;;;;;;81.45;38.28;;;7.10;99.90;;;;;;5095593;28;20196;-73
2022/11/27 00:33:54;;;;;;;83.07;38.42;;;7.10;99.90;;;;;;5114101;28;20676;-73
2022/11/27 00:36:20;;;;;;;74.88;36.40;;;7.10;99.90;;;;;;5114134;28;20199;-73
2022/11/27 00:38:46;;;;;;;79.37;35.60;;;7.10;99.90;;;;;;5113787;28;20231;-73
2022/11/27 00:41:16;;;;;;;75.47;35.10;;;7.20;99.90;;;;;;5113550;28;20211;-73
2022/11/27 00:43:42;;;;;;;81.15;37.78;;;7.20;99.90;;;;;;5114429;28;20191;-73
2022/11/27 00:46:08;;;;;;;78.07;35.97;;;7.20;99.90;;;;;;5113758;28;20192;-73
2022/11/27 00:48:34;;;;;;;86.63;37.50;;;7.20;99.90;;;;;;5095901;28;20225;-73
2022/11/27 00:51:05;;;;;;;79.85;35.63;;;7.20;99.90;;;;;;5113733;28;20447;-73
2022/11/27 00:53:31;;;;;;;77.00;35.08;;;7.20;99.90;;;;;;5114372;28;20176;-73
2022/11/27 00:55:58;;;;;;;82.50;37.72;;;7.20;99.90;;;;;;5113808;28;20680;-73
2022/11/27 00:58:24;;;;;;;69.93;35.65;;;7.20;99.90;;;;;;5114305;28;20520;-73
2022/11/27 01:00:55;;;;;;;82.80;35.92;;;7.30;99.90;;;;;;5095519;28;20218;-73
2022/11/27 01:03:21;;;;;;;78.93;37.17;;;7.30;99.90;;;;;;5095677;28;20640;-73
2022/11/27 01:05:46;;;;;;;82.13;34.90;;;7.30;99.90;;;;;;5114645;28;20207;-73
2022/11/27 01:08:12;;;;;;;73.50;35.70;;;7.30;99.90;;;;;;5117908;28;20502;-73
2022/11/27 01:10:38;;;;;;;75.60;36.50;;;7.30;99.90;;;;;;5099095;28;20207;-73
2022/11/27 01:13:03;;;;;;;80.97;36.40;;;7.30;99.90;;;;;;5117949;28;20258;-73
2022/11/27 01:15:29;;;;;;;78.43;34.27;;;7.30;99.90;;;;;;5099007;28;20668;-73
2022/11/27 01:17:54;;;;;;;86.13;35.27;;;7.30;99.90;;;;;;5117758;28;20233;-73
2022/11/27 01:20:20;;;;;;;69.33;34.17;;;7.30;99.90;;;;;;5117134;28;20729;-73
2022/11/27 01:22:46;;;;;;;83.03;37.07;;;7.30;99.90;;;;;;5117538;28;20512;-73
2022/11/27 01:25:11;;;;;;;77.90;37.33;;;7.30;99.90;;;;;;5117161;28;20192;-73
2022/11/27 01:27:37;;;;;;;89.27;37.17;;;7.30;99.90;;;;;;5117434;28;20176;-73
2022/11/27 01:30:03;;;;;;;75.37;35.80;;;7.30;99.90;;;;;;5117083;28;20196;-73
2022/11/27 01:32:29;;;;;;;81.40;35.70;;;7.30;99.90;;;;;;5115822;28;20168;-74
2022/11/27 01:34:54;;;;;;;78.97;32.47;;;7.30;99.90;;;;;;5098638;28;20199;-73
2022/11/27 01:37:20;;;;;;;86.93;36.37;;;7.30;99.90;;;;;;5116805;28;20609;-73
2022/11/27 01:39:45;;;;;;;72.73;33.37;;;7.20;99.90;;;;;;5098768;28;20200;-73
2022/11/27 01:42:11;;;;;;;74.23;32.73;;;7.20;99.90;;;;;;5117060;28;20191;-73
2022/11/27 01:44:37;;;;;;;71.47;33.47;;;7.20;99.90;;;;;;5116820;28;20283;-72
2022/11/27 01:47:10;;;;;;;79.67;34.17;;;7.20;99.90;;;;;;5116700;28;20511;-73
2022/11/27 01:49:40;;;;;;;82.78;38.70;;;7.20;99.90;;;;;;5098396;28;20290;-73
2022/11/27 01:52:13;;;;;;;83.45;37.60;;;7.30;99.90;;;;;;5116551;28;20759;-73
2022/11/27 01:54:44;;;;;;;85.40;35.05;;;7.20;99.90;;;;;;5116630;28;20207;-73
2022/11/27 01:57:21;;;;;;;83.95;34.75;;;7.20;99.90;;;;;;5116813;28;20160;-73
2022/11/27 01:59:48;;;;;;;80.30;36.13;;;7.20;99.90;;;;;;5116565;28;20664;-73
2022/11/27 02:02:14;;;;;;;69.07;31.80;;;7.20;99.90;;;;;;5116600;28;20184;-73
2022/11/27 02:04:40;;;;;;;78.03;35.03;;;7.20;99.90;;;;;;5116378;28;20663;-73
2022/11/27 02:07:05;;;;;;;83.33;33.83;;;7.20;99.90;;;;;;5116310;28;20164;-73
2022/11/27 02:09:31;;;;;;;79.80;35.00;;;7.20;99.90;;;;;;5098026;28;20624;-73
2022/11/27 02:12:13;;;;;;;74.07;32.22;;;7.20;99.90;;;;;;5116248;28;20255;-73
2022/11/27 02:14:54;;;;;;;79.70;34.10;;;7.20;99.90;;;;;;5097871;28;20717;-73
2022/11/27 02:17:29;;;;;;;83.75;35.00;;;7.20;99.90;;;;;;5115546;28;20182;-73
2022/11/27 02:20:25;;;;;;;76.97;35.00;;;7.20;99.90;;;;;;5097773;28;20603;-73
2022/11/27 02:23:12;;;;;;;77.13;33.63;;;7.20;99.90;;;;;;5116072;28;20172;-73
2022/11/27 02:25:59;;;;;;;68.47;32.70;;;7.20;99.90;;;;;;5097564;28;20222;-73
2022/11/27 02:29:01;;;;;;;85.38;33.75;;;7.20;99.90;;;;;;5097788;28;20219;-74
2022/11/27 02:31:42;;;;;;;84.03;35.85;;;7.20;99.90;;;;;;5114697;28;20270;-73
2022/11/27 02:34:22;;;;;;;81.70;32.97;;;7.20;99.90;;;;;;5115937;28;20172;-74
2022/11/27 02:37:10;;;;;;;70.18;31.52;;;7.20;99.90;;;;;;5116144;28;20228;-74
2022/11/27 02:39:49;;;;;;;80.55;31.48;;;7.20;99.90;;;;;;5115815;28;20626;-73
2022/11/27 02:42:19;;;;;;;80.30;35.50;;;7.20;99.90;;;;;;5097559;28;20211;-73
2022/11/27 02:45:00;;;;;;;71.40;31.65;;;7.20;99.90;;;;;;5097393;28;20283;-73
2022/11/27 02:47:27;;;;;;;76.57;31.90;;;7.10;99.90;;;;;;5115908;28;20518;-73
2022/11/27 02:49:55;;;;;;;75.25;32.53;;;7.10;99.90;;;;;;5115559;28;20727;-73
2022/11/27 02:52:24;;;;;;;83.57;33.38;;;7.10;99.90;;;;;;5115755;28;20172;-73
2022/11/27 02:54:53;;;;;;;75.78;31.73;;;7.10;99.90;;;;;;5115447;28;20196;-73
2022/11/27 02:57:22;;;;;;;84.90;35.00;;;7.10;99.90;;;;;;5114230;28;20210;-73
2022/11/27 02:59:50;;;;;;;83.90;34.28;;;7.10;99.90;;;;;;5097117;28;20207;-73
2022/11/27 03:02:19;;;;;;;72.38;32.90;;;7.10;99.90;;;;;;5115229;28;20186;-73
2022/11/27 03:04:52;;;;;;;77.53;32.05;;;7.10;99.90;;;;;;5115234;28;20191;-73
2022/11/27 03:07:29;;;;;;;72.93;31.88;;;7.20;99.90;;;;;;5097092;28;20175;-73
2022/11/27 03:10:02;;;;;;;79.15;34.63;;;7.20;99.90;;;;;;5115257;28;20248;-73
2022/11/27 03:12:27;;;;;;;76.70;32.90;;;7.20;99.90;;;;;;5097084;28;20620;-74
2022/11/27 03:14:53;;;;;;;78.40;34.43;;;7.20;99.90;;;;;;5114957;28;20204;-73
2022/11/27 03:17:49;;;;;;;73.77;32.27;;;7.20;99.90;;;;;;5115218;28;20226;-73
2022/11/27 03:20:30;;;;;;;75.57;32.58;;;7.30;99.90;;;;;;5096605;28;20218;-73
2022/11/27 03:22:56;;;;;;;70.53;31.35;;;7.30;99.90;;;;;;5115389;28;20179;-73
2022/11/27 03:25:23;;;;;;;79.75;33.45;;;7.30;99.90;;;;;;5114766;28;20192;-73
2022/11/27 03:28:03;;;;;;;82.10;33.47;;;7.30;99.90;;;;;;5115133;28;20664;-73
2022/11/27 03:30:29;;;;;;;77.28;31.48;;;7.30;99.90;;;;;;5114690;28;20191;-73
2022/11/27 03:32:55;;;;;;;70.03;31.50;;;7.30;99.90;;;;;;5115276;28;20168;-73
2022/11/27 03:35:24;;;;;;;73.70;30.90;;;7.30;99.90;;;;;;5096383;28;20235;-73
2022/11/27 03:37:51;;;;;;;77.47;29.77;;;7.30;99.90;;;;;;5096228;28;20847;-73
2022/11/27 03:40:18;;;;;;;68.43;30.73;;;7.30;99.90;;;;;;5114487;28;20216;-73
2022/11/27 03:42:50;;;;;;;70.18;31.40;;;7.30;99.90;;;;;;5115038;28;20229;-73
2022/11/27 03:45:28;;;;;;;75.60;30.65;;;7.30;99.90;;;;;;5114469;28;20192;-73
2022/11/27 03:48:10;;;;;;;68.95;29.42;;;7.30;99.90;;;;;;5114426;28;20182;-73
2022/11/27 03:51:13;;;;;;;67.80;28.77;;;7.30;99.90;;;;;;5114632;28;20200;-73
2022/11/27 03:54:08;;;;;;;71.47;29.45;;;7.30;99.90;;;;;;5114412;28;20574;-73
2022/11/27 03:56:58;;;;;;;76.18;31.75;;;7.30;99.90;;;;;;5096249;28;20176;-73
2022/11/27 03:59:31;;;;;;;79.05;30.55;;;7.30;99.90;;;;;;5114314;28;20665;-73
2022/11/27 04:01:57;;;;;;;66.50;28.55;;;7.30;99.90;;;;;;5096161;28;20219;-73
2022/11/27 04:04:23;;;;;;;72.37;32.83;;;7.30;99.90;;;;;;5095924;28;20196;-73
2022/11/27 04:06:48;;;;;;;77.50;32.27;;;7.30;99.90;;;;;;5114139;28;20175;-73
2022/11/27 04:09:14;;;;;;;74.57;31.73;;;7.30;99.90;;;;;;5114140;28;20489;-73
2022/11/27 04:11:39;;;;;;;70.80;31.40;;;7.40;99.90;;;;;;5095915;28;20187;-73
2022/11/27 04:14:05;;;;;;;68.93;30.90;;;7.40;99.90;;;;;;5114112;28;20178;-73
2022/11/27 04:16:31;;;;;;;70.90;32.17;;;7.40;99.90;;;;;;5095877;28;20210;-73
2022/11/27 04:18:57;;;;;;;75.73;33.43;;;7.40;99.90;;;;;;5114065;28;20176;-73
2022/11/27 04:21:22;;;;;;;86.33;32.30;;;7.40;99.90;;;;;;5095681;28;20239;-73
2022/11/27 04:23:48;;;;;;;67.13;30.03;;;7.40;99.90;;;;;;5114084;28;20187;-73
2022/11/27 04:26:13;;;;;;;79.47;33.17;;;7.40;99.90;;;;;;5113881;28;20188;-73
2022/11/27 04:28:39;;;;;;;74.80;30.77;;;7.40;99.90;;;;;;5095782;28;20211;-73
2022/11/27 04:31:05;;;;;;;66.77;29.20;;;7.40;99.90;;;;;;5114011;28;20223;-73
2022/11/27 04:33:30;;;;;;;72.17;29.67;;;7.40;99.90;;;;;;5096113;28;20186;-73
2022/11/27 04:35:56;;;;;;;74.33;30.17;;;7.40;99.90;;;;;;5095898;28;20199;-73
2022/11/27 04:38:22;;;;;;;68.97;28.47;;;7.40;99.90;;;;;;5113707;28;20227;-73
2022/11/27 04:40:49;;;;;;;74.47;27.87;;;7.40;99.90;;;;;;5096625;28;20605;-73
2022/11/27 04:43:15;;;;;;;66.00;30.65;;;7.40;99.90;;;;;;5099659;28;20259;-73
2022/11/27 04:45:42;;;;;;;71.90;30.87;;;7.40;99.90;;;;;;5117908;28;20227;-73
2022/11/27 04:48:08;;;;;;;70.40;30.38;;;7.30;99.90;;;;;;5118360;28;20175;-73
2022/11/27 04:50:33;;;;;;;65.47;27.97;;;7.30;99.90;;;;;;5117928;28;20202;-73
2022/11/27 04:52:59;;;;;;;69.47;27.73;;;7.30;99.90;;;;;;5118255;28;20180;-73
2022/11/27 04:55:25;;;;;;;85.60;28.83;;;7.20;99.90;;;;;;5117699;28;20199;-74
2022/11/27 04:57:50;;;;;;;65.97;28.67;;;7.20;99.90;;;;;;5117685;28;20180;-74
2022/11/27 05:00:17;;;;;;;62.03;28.43;;;7.20;99.90;;;;;;5117541;28;20215;-73
2022/11/27 05:02:42;;;;;;;65.45;30.17;;;7.20;99.90;;;;;;5117878;28;20263;-73
2022/11/27 05:05:08;;;;;;;75.87;30.20;;;7.20;99.90;;;;;;5117622;28;20595;-73
2022/11/27 05:07:34;;;;;;;65.43;30.47;;;7.20;99.90;;;;;;5117859;28;20254;-73
2022/11/27 05:10:00;;;;;;;75.80;30.47;;;7.10;99.90;;;;;;5117538;28;20920;-73
2022/11/27 05:12:26;;;;;;;80.40;29.67;;;7.10;99.90;;;;;;5117758;28;20183;-73
2022/11/27 05:14:51;;;;;;;69.70;29.37;;;7.10;99.90;;;;;;5117470;28;20192;-73
2022/11/27 05:17:17;;;;;;;60.60;27.77;;;7.10;99.90;;;;;;5117553;28;20175;-73
2022/11/27 05:19:43;;;;;;;67.53;28.43;;;7.10;99.90;;;;;;5117403;28;20227;-73
2022/11/27 05:22:08;;;;;;;59.40;25.70;;;7.20;99.90;;;;;;5117392;28;20294;-73
2022/11/27 05:24:34;;;;;;;68.23;28.67;;;7.10;99.90;;;;;;5117219;28;20276;-73
2022/11/27 05:27:00;;;;;;;68.77;28.10;;;7.10;99.90;;;;;;5098999;28;20184;-73
2022/11/27 05:29:25;;;;;;;69.23;26.53;;;7.20;99.90;;;;;;5117062;28;20192;-73
2022/11/27 05:31:51;;;;;;;65.20;28.80;;;7.10;99.90;;;;;;5098883;28;20176;-73
2022/11/27 05:34:17;;;;;;;71.13;29.17;;;7.10;99.90;;;;;;5116912;28;20447;-73
2022/11/27 05:36:43;;;;;;;67.20;26.63;;;7.10;99.90;;;;;;5098680;28;20507;-73
2022/11/27 05:39:10;;;;;;;64.40;28.80;;;7.10;99.90;;;;;;5116910;28;20676;-74
2022/11/27 05:41:39;;;;;;;61.47;25.58;;;7.10;99.90;;;;;;5115661;28;20222;-73
2022/11/27 05:44:04;;;;;;;57.38;25.50;;;7.10;99.90;;;;;;5098581;28;20179;-73
2022/11/27 05:46:30;;;;;;;59.33;28.00;;;7.10;99.90;;;;;;5116683;28;20184;-73
2022/11/27 05:48:56;;;;;;;66.10;26.40;;;7.10;99.90;;;;;;5116732;28;20259;-73
2022/11/27 05:51:22;;;;;;;63.47;24.40;;;7.10;99.90;;;;;;5098160;28;20172;-73
2022/11/27 05:53:48;;;;;;;56.00;22.50;;;7.10;99.90;;;;;;5115556;28;20349;-73
2022/11/27 05:56:16;;;;;;;56.08;23.00;;;7.10;99.90;;;;;;5116451;28;20416;-73
2022/11/27 05:58:44;;;;;;;53.75;25.02;;;7.10;99.90;;;;;;5098230;28;20246;-73
2022/11/27 06:01:12;;;;;;;57.17;24.77;;;7.10;99.90;;;;;;5116391;28;20272;-73
2022/11/27 06:03:38;;;;;;;62.53;26.08;;;7.10;99.90;;;;;;5116517;28;20641;-73
2022/11/27 06:06:09;;;;;;;81.82;34.28;;;7.10;99.90;;;;;;5098089;28;20203;-73
2022/11/27 06:08:38;;;;;;;71.30;27.80;;;7.10;99.90;;;;;;5116329;28;20198;-73
2022/11/27 06:11:14;;;;;;;68.28;27.30;;;7.10;99.90;;;;;;5098080;28;20206;-73
2022/11/27 06:13:40;;;;;;;57.75;24.88;;;7.10;99.90;;;;;;5097983;28;20188;-73
2022/11/27 06:16:09;;;;;;;56.03;25.80;;;7.10;99.90;;;;;;5097850;28;20192;-73
2022/11/27 06:18:35;;;;;;;58.15;25.77;;;7.10;99.90;;;;;;5098188;28;20168;-73
2022/11/27 06:21:08;;;;;;;59.57;28.30;;;7.10;99.90;;;;;;5097771;28;20219;-73
2022/11/27 06:23:34;;;;;;;69.28;27.80;;;7.10;99.90;;;;;;5098115;28;20514;-73
2022/11/27 06:26:24;;;;;;;70.80;27.75;;;7.10;99.90;;;;;;5115994;28;20214;-73
2022/11/27 06:28:51;;;;;;;67.80;26.55;;;7.10;99.90;;;;;;5116117;28;20169;-73
2022/11/27 06:31:19;;;;;;;67.70;27.63;;;7.20;99.90;;;;;;5115826;28;20313;-73
2022/11/27 06:33:49;;;;;;;60.42;27.00;;;7.10;99.90;;;;;;5116048;28;20271;-73
2022/11/27 06:36:16;;;;;;;64.85;24.60;;;7.20;99.90;;;;;;5097403;28;20192;-73
2022/11/27 06:38:42;;;;;;;70.38;26.08;;;7.20;99.90;;;;;;5094115;28;20255;-73
2022/11/27 06:41:14;;;;;;;69.60;26.50;;;7.20;99.90;;;;;;5093983;28;20227;-73
2022/11/27 06:43:40;;;;;;;57.53;25.27;;;7.20;99.90;;;;;;5111119;28;20169;-73
2022/11/27 06:46:08;;;;;;;57.53;23.80;;;7.20;99.90;;;;;;5095194;28;20676;-73
2022/11/27 06:48:34;;;;;;;75.55;27.30;;;7.20;99.90;;;;;;5094271;28;20181;-73
2022/11/27 06:51:01;;;;;;;55.73;25.33;;;7.20;99.90;;;;;;5095141;28;20207;-73
2022/11/27 06:53:28;;;;;;;50.63;22.50;;;7.20;99.90;;;;;;5094155;28;20825;-73
2022/11/27 06:55:54;;;;;;;54.17;23.33;;;7.20;99.90;;;;;;5095120;28;20188;-73
2022/11/27 06:58:20;;;;;;;50.43;22.87;;;7.20;99.90;;;;;;5094000;28;20180;-74
2022/11/27 07:00:45;;;;;;;57.20;23.50;;;7.20;99.90;;;;;;5093672;28;20580;-73
2022/11/27 07:03:11;;;;;;;50.50;23.37;;;7.20;99.90;;;;;;5093485;28;20173;-73
2022/11/27 07:05:37;;;;;;;52.57;23.40;;;7.20;99.90;;;;;;5094884;28;20203;-73
2022/11/27 07:08:03;;;;;;;51.70;23.80;;;7.20;99.90;;;;;;5093766;28;20184;-73
2022/11/27 07:10:31;;;;;;;57.00;24.65;;;7.20;99.90;;;;;;5094829;28;20704;-73
2022/11/27 07:12:57;;;;;;;67.65;25.98;;;7.20;99.90;;;;;;5093828;28;20684;-73
2022/11/27 07:15:22;;;;;;;61.47;24.33;;;7.20;99.90;;;;;;5093392;28;20235;-73
2022/11/27 07:17:48;;;;;;;57.63;24.70;;;7.20;99.90;;;;;;5094646;28;20172;-73
2022/11/27 07:20:14;;;;;;;59.50;24.30;;;7.20;99.90;;;;;;5094433;28;20196;-73
2022/11/27 07:22:39;;;;;;;50.27;20.90;;;7.30;99.90;;;;;;5093358;28;20185;-73
2022/11/27 07:25:05;;;;;;;50.87;22.27;;;7.30;99.90;;;;;;5094558;28;20219;-73
2022/11/27 07:27:31;;;;;;;56.55;22.35;;;7.30;99.90;;;;;;5093283;28;20184;-73
2022/11/27 07:29:56;;;;;;;56.80;24.40;;;7.30;99.90;;;;;;5094386;28;20211;-74
2022/11/27 07:32:22;;;;;;;62.00;26.13;;;7.20;99.90;;;;;;5094608;28;20188;-73
2022/11/27 07:34:47;;;;;;;53.23;24.10;;;7.20;99.90;;;;;;5110055;28;20218;-73
2022/11/27 07:37:13;;;;;;;64.00;26.10;;;7.30;99.90;;;;;;5110893;28;20200;-73
2022/11/27 07:39:38;;;;;;;57.13;23.97;;;7.30;99.90;;;;;;5114580;28;20196;-73
2022/11/27 07:42:04;;;;;;;67.17;27.03;;;7.30;99.90;;;;;;5114681;28;20208;-73
2022/11/27 07:44:31;;;;;;;64.35;24.45;;;7.30;99.90;;;;;;5114399;28;20296;-73
2022/11/27 07:46:56;;;;;;;56.90;26.87;;;7.30;99.90;;;;;;5114687;28;20207;-73
2022/11/27 07:49:22;;;;;;;59.93;25.37;;;7.30;99.90;;;;;;5096208;28;20203;-73
2022/11/27 07:51:47;;;;;;;63.87;25.90;;;7.30;99.90;;;;;;5096191;28;20612;-73
2022/11/27 07:54:13;;;;;;;61.10;26.73;;;7.30;99.90;;;;;;5096184;28;20271;-73
2022/11/27 07:56:38;;;;;;;59.73;24.43;;;7.30;99.90;;;;;;5096190;28;20180;-73
2022/11/27 07:59:04;;;;;;;87.97;34.77;;;7.30;99.90;;;;;;5114373;28;20176;-73
2022/11/27 08:01:29;;;;;;;86.07;36.57;;;7.30;99.90;;;;;;5096030;28;20756;-73
2022/11/27 08:03:55;;;;;;;78.20;33.97;;;7.30;99.90;;;;;;5096033;28;20176;-73
2022/11/27 08:06:24;;;;;;;76.20;31.33;;;7.30;99.90;;;;;;5114137;28;20176;-73
2022/11/27 08:08:50;;;;;;;77.55;30.27;;;7.30;99.90;;;;;;5114278;28;20176;-73
2022/11/27 08:11:22;;;;;;;73.45;26.50;;;7.30;99.90;;;;;;5096085;28;20224;-73
2022/11/27 08:13:48;;;;;;;65.57;25.80;;;7.40;99.90;;;;;;5114327;28;20677;-73
2022/11/27 08:16:14;;;;;;;75.82;30.15;;;7.40;99.90;;;;;;5094950;28;20203;-73
2022/11/27 08:18:40;;;;;;;75.57;28.00;;;7.40;99.90;;;;;;5114232;28;20183;-73
2022/11/27 08:21:06;;;;;;;64.67;26.37;;;7.40;99.90;;;;;;5095773;28;20577;-73
2022/11/27 08:23:31;;;;;;;63.73;25.17;;;7.40;99.90;;;;;;5114607;28;20258;-73
2022/11/27 08:25:57;;;;;;;83.20;29.17;;;7.40;99.90;;;;;;5113957;28;20193;-73
2022/11/27 08:28:23;;;;;;;80.17;31.37;;;7.40;99.90;;;;;;5114495;28;20634;-73
2022/11/27 08:30:58;;;;;;;67.50;27.57;;;7.50;99.90;;;;;;5095732;28;20709;-73
2022/11/27 08:33:24;;;;;;;51.67;24.38;;;7.40;99.90;;;;;;5114529;28;20168;-73
2022/11/27 08:35:50;;;;;;;65.00;25.77;;;7.40;99.90;;;;;;5095772;28;20200;-73
2022/11/27 08:38:16;;;;;;;58.40;24.30;;;7.40;99.90;;;;;;5092338;28;20227;-73
2022/11/27 08:40:42;;;;;;;57.15;26.55;;;7.40;99.90;;;;;;5092214;28;20227;-73
2022/11/27 08:43:07;;;;;;;82.00;29.80;;;7.40;99.90;;;;;;5094009;28;20177;-73
2022/11/27 08:45:33;;;;;;;75.97;30.63;;;7.40;99.90;;;;;;5087436;28;20207;-73
2022/11/27 08:47:59;;;;;;;78.87;31.30;;;7.50;99.90;;;;;;5091263;28;20511;-73
2022/11/27 08:50:24;;;;;;;77.73;30.93;;;7.50;99.90;;;;;;5093425;28;20200;-73
2022/11/27 08:52:50;;;;;;;80.23;29.80;;;7.50;99.90;;;;;;5093816;28;20184;-73
2022/11/27 08:55:16;;;;;;;77.60;27.37;;;7.50;99.90;;;;;;5092707;28;20208;-73
2022/11/27 08:57:41;;;;;;;63.57;27.40;;;7.50;99.90;;;;;;5091948;28;20176;-73
2022/11/27 09:00:08;;;;;;;66.20;28.27;;;7.50;99.90;;;;;;5091386;28;20205;-73
2022/11/27 09:02:34;;;;;;;71.28;28.02;;;7.50;99.90;;;;;;5091247;28;20591;-73
2022/11/27 09:05:01;;;;;;;68.50;26.80;;;7.50;99.90;;;;;;5092498;28;20235;-73
2022/11/27 09:07:27;;;;;;;67.05;26.83;;;7.50;99.90;;;;;;5093602;28;20614;-73
2022/11/27 09:09:53;;;;;;;68.40;30.00;;;7.50;99.90;;;;;;5090828;28;20201;-73
2022/11/27 09:12:18;;;;;;;63.33;25.93;;;7.50;99.90;;;;;;5092862;28;20264;-73
2022/11/27 09:14:44;;;;;;;65.87;26.20;;;7.50;99.90;;;;;;5088390;28;20835;-73
2022/11/27 09:17:10;;;;;;;61.13;25.30;;;7.50;99.90;;;;;;5073036;28;20185;-73
2022/11/27 09:19:36;;;;;;;66.47;25.80;;;7.50;99.90;;;;;;5071160;28;20453;-73
2022/11/27 09:22:01;;;;;;;68.27;27.70;;;7.50;99.90;;;;;;5077486;28;20209;-73
2022/11/27 09:24:27;;;;;;;65.03;26.77;;;7.50;99.90;;;;;;5092483;28;20207;-73
2022/11/27 09:26:53;;;;;;;55.63;24.87;;;7.60;99.90;;;;;;5092893;28;20179;-74
2022/11/27 09:29:18;;;;;;;55.90;23.27;;;7.60;99.90;;;;;;5081609;28;20308;-74
2022/11/27 09:31:44;;;;;;;46.83;19.70;;;7.60;99.90;;;;;;5096288;28;20291;-74
2022/11/27 09:34:10;;;;;;;55.33;23.10;;;7.60;99.90;;;;;;5096271;28;20180;-73
2022/11/27 09:36:35;;;;;;;47.30;21.60;;;7.60;99.90;;;;;;5089745;28;20192;-73
2022/11/27 09:39:02;;;;;;;56.50;22.60;;;7.60;99.90;;;;;;5092257;28;20224;-73
2022/11/27 09:41:39;;;;;;;56.72;23.55;;;7.60;99.90;;;;;;5095903;28;20211;-73
2022/11/27 09:44:23;;;;;;;68.45;25.58;;;7.60;99.90;;;;;;5116287;28;20179;-73
2022/11/27 09:46:50;;;;;;;57.70;24.15;;;7.60;99.90;;;;;;5116062;28;20224;-73
2022/11/27 09:49:28;;;;;;;53.03;21.38;;;7.60;99.90;;;;;;5116577;28;20597;-73
2022/11/27 09:52:06;;;;;;;64.75;25.08;;;7.70;99.90;;;;;;5116269;28;20545;-73
2022/11/27 09:55:00;;;;;;;56.88;23.67;;;7.70;99.90;;;;;;5097783;28;20287;-73
2022/11/27 09:57:35;;;;;;;59.88;24.10;;;7.70;99.90;;;;;;5097700;28;20188;-73
2022/11/27 10:00:06;;;;;;;65.03;26.63;;;7.70;99.90;;;;;;5111428;28;20252;-73
2022/11/27 10:02:33;;;;;;;61.90;24.55;;;7.70;99.90;;;;;;5095649;28;20195;-73
2022/11/27 10:05:01;;;;;;;60.17;25.35;;;7.70;99.90;;;;;;5081295;28;20199;-74
2022/11/27 10:08:00;;;;;;;49.33;23.63;;;7.60;99.90;;;;;;5113574;28;20187;-73
2022/11/27 10:10:41;;;;;;;56.92;24.00;;;7.60;99.90;;;;;;5104768;28;20569;-73
2022/11/27 10:13:12;;;;;;;59.83;25.45;;;7.60;99.90;;;;;;5115127;28;20200;-74
2022/11/27 10:15:38;;;;;;;50.53;23.73;;;7.50;99.90;;;;;;5086100;28;20452;-73
2022/11/27 10:18:40;;;;;;;54.73;23.47;;;7.50;99.90;;;;;;5095683;28;20672;-73
2022/11/27 10:21:11;;;;;;;66.50;25.98;;;7.40;99.90;;;;;;5063348;28;20228;-73
2022/11/27 10:24:02;;;;;;;60.80;23.05;;;7.40;99.90;;;;;;5077277;28;20263;-73
2022/11/27 10:26:44;;;;;;;65.18;26.05;;;7.40;99.90;;;;;;5113861;28;20203;-73
2022/11/27 10:29:18;;;;;;;68.55;29.00;;;7.40;99.90;;;;;;5097566;28;20176;-73
2022/11/27 10:31:56;;;;;;;71.47;27.23;;;7.40;99.90;;;;;;5102145;28;20191;-74
2022/11/27 10:34:33;;;;;;;63.88;25.25;;;7.40;99.90;;;;;;5095833;28;20192;-73
2022/11/27 10:37:04;;;;;;;60.40;24.73;;;7.40;99.90;;;;;;5115790;28;20583;-74
2022/11/27 10:39:40;;;;;;;66.95;29.17;;;7.50;99.90;;;;;;5092833;28;20232;-73
2022/11/27 10:42:32;;;;;;;69.18;30.17;;;7.50;99.90;;;;;;5093811;28;20222;-73
2022/11/27 10:45:19;;;;;;;61.80;26.88;;;7.50;99.90;;;;;;5074469;28;20211;-73
2022/11/27 10:47:47;;;;;;;61.40;24.48;;;7.50;99.90;;;;;;5093841;28;20187;-73
2022/11/27 10:50:15;;;;;;;67.95;27.70;;;7.50;99.90;;;;;;5094633;28;20283;-73
2022/11/27 10:53:09;;;;;;;67.03;26.15;;;7.50;99.90;;;;;;5078089;28;20192;-73
2022/11/27 10:55:56;;;;;;;64.20;25.80;;;7.60;99.90;;;;;;5083492;28;20231;-74
2022/11/27 10:58:33;;;;;;;53.15;25.63;;;7.60;99.90;;;;;;5094931;28;20188;-73
2022/11/27 11:01:05;;;;;;;55.70;23.65;;;7.60;99.90;;;;;;5094675;28;20226;-73
2022/11/27 11:03:32;;;;;;;64.57;24.58;;;7.60;99.90;;;;;;5094785;28;20698;-73
2022/11/27 11:06:02;;;;;;;53.55;23.60;;;7.60;99.90;;;;;;5094493;28;20629;-73
2022/11/27 11:08:28;;;;;;;60.03;24.40;;;7.60;99.90;;;;;;5093934;28;20202;-73
2022/11/27 11:11:00;;;;;;;49.78;21.15;;;7.60;99.90;;;;;;5091294;28;20218;-73
2022/11/27 11:13:28;;;;;;;54.75;21.67;;;7.60;99.90;;;;;;5092291;28;20192;-73
2022/11/27 11:15:58;;;;;;;46.88;22.58;;;7.60;99.90;;;;;;5091299;28;20542;-73
2022/11/27 11:18:41;;;;;;;65.97;23.95;;;7.60;99.90;;;;;;5091000;28;20224;-74
2022/11/27 11:21:16;;;;;;;59.40;22.15;;;7.60;99.90;;;;;;5090478;28;20287;-73
2022/11/27 11:23:42;;;;;;;49.78;20.25;;;7.60;99.90;;;;;;5089249;28;20180;-73
2022/11/27 11:26:15;;;;;;;50.93;22.60;;;7.60;99.90;;;;;;5090241;28;20287;-73
2022/11/27 11:28:58;;;;;;;58.75;22.65;;;7.70;99.90;;;;;;5094356;28;20909;-73
2022/11/27 11:31:32;;;;;;;58.08;24.10;;;7.70;99.90;;;;;;5092263;28;20180;-73
2022/11/27 11:34:01;;;;;;;49.65;24.13;;;7.70;99.90;;;;;;5093094;28;20173;-73
2022/11/27 11:36:27;;;;;;;57.50;24.60;;;7.70;99.90;;;;;;5092787;28;20195;-73
2022/11/27 11:38:53;;;;;;;54.57;25.00;;;7.70;99.90;;;;;;5093103;28;20236;-73
2022/11/27 11:41:19;;;;;;;52.70;22.37;;;7.70;99.90;;;;;;5093297;28;20230;-74
2022/11/27 11:44:00;;;;;;;56.00;22.35;;;7.70;99.90;;;;;;5094246;28;20561;-74
2022/11/27 11:46:29;;;;;;;58.25;23.80;;;7.70;99.90;;;;;;5093949;28;20175;-73
2022/11/27 11:49:03;;;;;;;50.38;22.33;;;7.70;99.90;;;;;;5094170;28;20180;-74
2022/11/27 11:51:40;;;;;;;61.08;24.50;;;7.70;99.90;;;;;;5092212;28;20668;-73
2022/11/27 11:54:36;;;;;;;52.00;23.23;;;7.70;99.90;;;;;;5091687;28;20173;-74
2022/11/27 11:57:10;;;;;;;54.17;23.80;;;7.80;99.90;;;;;;5072369;28;20200;-74
2022/11/27 11:59:46;;;;;;;44.22;22.15;;;7.80;99.90;;;;;;5091425;28;20684;-75
2022/11/27 12:02:49;;;;;;;60.92;23.85;;;7.80;99.90;;;;;;5082750;28;20279;-72
2022/11/27 12:05:31;;;;;;;56.17;23.77;;;7.80;99.90;;;;;;5086584;28;20200;-73
2022/11/27 12:08:35;;;;;;;57.75;23.75;;;7.80;99.90;;;;;;5089980;28;21501;-73
2022/11/27 12:11:36;;;;;;;52.20;23.52;;;7.80;99.90;;;;;;5088115;28;20240;-73
2022/11/27 12:14:24;;;;;;;45.20;22.00;;;7.80;99.90;;;;;;5082834;28;20710;-73
2022/11/27 12:17:21;;;;;;;57.28;22.45;;;7.80;99.90;;;;;;5092152;28;20176;-73
2022/11/27 12:20:08;;;;;;;56.58;22.65;;;7.80;99.90;;;;;;5092029;28;20207;-73
2022/11/27 12:22:39;;;;;;;54.72;24.13;;;7.80;99.90;;;;;;5093532;28;20222;-73
2022/11/27 12:25:32;;;;;;;252.05;88.60;;;7.80;99.90;;;;;;5091241;28;20241;-73
2022/11/27 12:28:13;;;;;;;123.57;49.70;;;7.80;99.90;;;;;;5089574;28;20187;-73
2022/11/27 12:31:10;;;;;;;63.20;29.30;;;7.90;99.90;;;;;;5084633;28;20276;-73
2022/11/27 12:34:05;;;;;;;63.78;28.80;;;7.90;99.90;;;;;;5065451;28;20188;-73
2022/11/27 12:36:50;;;;;;;57.38;27.38;;;7.90;99.90;;;;;;5080499;28;20278;-73
2022/11/27 12:39:24;;;;;;;53.95;24.73;;;8.00;99.90;;;;;;5078065;28;20241;-73
2022/11/27 12:42:00;;;;;;;50.05;24.75;;;8.00;99.90;;;;;;5103623;28;20752;-73
2022/11/27 12:44:49;;;;;;;52.17;23.48;;;8.00;99.90;;;;;;5082169;28;20244;-73
2022/11/27 12:47:37;;;;;;;52.58;24.85;;;8.10;99.90;;;;;;5084789;28;20169;-74
2022/11/27 12:50:27;;;;;;;48.58;22.80;;;8.10;99.90;;;;;;5074297;28;20236;-72
2022/11/27 12:53:19;;;;;;;58.13;24.35;;;8.10;99.90;;;;;;5079225;28;20200;-73
2022/11/27 12:56:15;;;;;;;64.82;28.30;;;8.10;99.90;;;;;;5075616;28;20204;-74